createdAt,value
2023-03-17T00:01:16.312Z,101324.72
2023-03-17T00:03:46.282Z,101318.09
2023-03-17T00:06:17.992Z,101321.56
2023-03-17T00:08:46.299Z,101319.88
2023-03-17T00:11:16.001Z,101327.28
2023-03-17T00:13:44.598Z,101315.44
2023-03-17T00:16:16.389Z,101306.38
2023-03-17T00:18:44.624Z,101313.97
2023-03-17T00:21:14.764Z,101310.69
2023-03-17T00:23:45.881Z,101307.13
2023-03-17T00:26:14.209Z,101305.44
2023-03-17T00:28:42.998Z,101318.69
2023-03-17T00:31:14.539Z,101306.53
2023-03-17T00:33:42.699Z,101286.09
2023-03-17T00:36:12.297Z,101291.69
2023-03-17T00:38:40.119Z,101287.56
2023-03-17T00:41:10.897Z,101293.91
2023-03-17T00:43:38.970Z,101284.19
2023-03-17T00:46:12.521Z,101277.25
2023-03-17T00:48:40.508Z,101277.25
2023-03-17T00:51:08.526Z,101262.81
2023-03-17T00:53:37.080Z,101256.78
2023-03-17T00:56:05.643Z,101248.44
2023-03-17T00:58:35.422Z,101244.22
2023-03-17T01:01:03.589Z,101252.44
2023-03-17T01:03:32.957Z,101247.06
2023-03-17T01:06:01.329Z,101234.84
2023-03-17T01:08:31.306Z,101241.81
2023-03-17T01:10:59.386Z,101238.31
2023-03-17T01:13:28.358Z,101247.34
2023-03-17T01:15:57.935Z,101243.88
2023-03-17T01:18:26.191Z,101236.28
2023-03-17T01:20:54.551Z,101237.13
2023-03-17T01:23:23.026Z,101233.75
2023-03-17T01:25:51.007Z,101237.13
2023-03-17T01:28:19.975Z,101236.91
2023-03-17T01:30:49.153Z,101225.09
2023-03-17T01:33:20.643Z,101221.19
2023-03-17T01:35:48.772Z,101214.16
2023-03-17T01:38:17.723Z,101211.63
2023-03-17T01:40:49.466Z,101211.41
2023-03-17T01:43:20.696Z,101214.88
2023-03-17T01:46:27.311Z,101209.00
2023-03-17T01:49:09.355Z,101198.84
2023-03-17T01:51:40.347Z,101206.41
2023-03-17T01:54:11.251Z,101207.78
2023-03-17T01:56:43.170Z,101200.72
2023-03-17T01:59:15.777Z,101189.06
2023-03-17T02:01:47.284Z,101186.19
2023-03-17T02:04:17.720Z,101187.03
2023-03-17T02:06:57.395Z,101181.47
2023-03-17T02:09:27.763Z,101191.34
2023-03-17T02:11:56.246Z,101184.88
2023-03-17T02:14:25.458Z,101179.16
2023-03-17T02:16:56.187Z,101177.47
2023-03-17T02:19:25.651Z,101172.94
2023-03-17T02:21:55.765Z,101169.66
2023-03-17T02:24:29.944Z,101164.56
2023-03-17T02:27:05.577Z,101167.03
2023-03-17T02:29:35.912Z,101163.72
2023-03-17T02:32:04.314Z,101165.53
2023-03-17T02:34:32.588Z,101168.25
2023-03-17T02:37:01.775Z,101158.94
2023-03-17T02:39:31.827Z,101160.25
2023-03-17T02:42:00.194Z,101161.09
2023-03-17T02:44:28.087Z,101163.19
2023-03-17T02:46:56.587Z,101157.09
2023-03-17T02:49:25.935Z,101157.28
2023-03-17T02:51:54.380Z,101154.25
2023-03-17T02:54:23.596Z,101146.66
2023-03-17T02:56:51.963Z,101147.50
2023-03-17T02:59:19.842Z,101135.09
2023-03-17T03:01:48.543Z,101147.94
2023-03-17T03:04:16.561Z,101154.72
2023-03-17T03:06:44.658Z,101157.72
2023-03-17T03:09:13.598Z,101148.72
2023-03-17T03:11:43.089Z,101144.03
2023-03-17T03:14:11.576Z,101142.50
2023-03-17T03:16:39.421Z,101146.09
2023-03-17T03:19:07.901Z,101154.81
2023-03-17T03:21:36.648Z,101155.72
2023-03-17T03:24:04.826Z,101160.63
2023-03-17T03:26:32.804Z,101162.63
2023-03-17T03:29:02.197Z,101157.25
2023-03-17T03:31:30.506Z,101170.50
2023-03-17T03:33:58.400Z,101173.63
2023-03-17T03:36:27.007Z,101164.41
2023-03-17T03:38:55.161Z,101165.41
2023-03-17T03:41:23.180Z,101161.94
2023-03-17T03:43:51.227Z,101158.47
2023-03-17T03:46:20.454Z,101161.19
2023-03-17T03:48:48.420Z,101151.69
2023-03-17T03:51:16.273Z,101154.91
2023-03-17T03:53:44.229Z,101155.34
2023-03-17T03:56:12.079Z,101154.50
2023-03-17T03:58:39.937Z,101157.16
2023-03-17T04:01:09.384Z,101161.88
2023-03-17T04:03:38.919Z,101156.16
2023-03-17T04:06:07.308Z,101150.41
2023-03-17T04:08:35.217Z,101150.69
2023-03-17T04:11:03.130Z,101151.34
2023-03-17T04:13:31.321Z,101151.94
2023-03-17T04:15:59.266Z,101145.22
2023-03-17T04:18:27.274Z,101146.66
2023-03-17T04:20:56.630Z,101150.03
2023-03-17T04:23:24.564Z,101141.41
2023-03-17T04:25:53.369Z,101142.34
2023-03-17T04:28:22.421Z,101138.13
2023-03-17T04:30:50.532Z,101123.50
2023-03-17T04:33:20.197Z,101116.53
2023-03-17T04:35:48.258Z,101119.00
2023-03-17T04:38:17.731Z,101117.41
2023-03-17T04:40:45.623Z,101106.69
2023-03-17T04:43:13.553Z,101114.00
2023-03-17T04:45:41.633Z,101122.19
2023-03-17T04:48:09.472Z,101127.34
2023-03-17T04:50:37.344Z,101125.56
2023-03-17T04:53:05.249Z,101122.19
2023-03-17T04:55:34.442Z,101127.25
2023-03-17T04:58:02.288Z,101127.56
2023-03-17T05:00:30.458Z,101116.50
2023-03-17T05:02:58.422Z,101119.88
2023-03-17T05:05:26.375Z,101124.09
2023-03-17T05:07:54.191Z,101120.22
2023-03-17T05:10:22.136Z,101114.41
2023-03-17T05:12:51.733Z,101119.56
2023-03-17T05:15:19.814Z,101115.66
2023-03-17T05:17:47.713Z,101106.38
2023-03-17T05:20:15.749Z,101098.63
2023-03-17T05:22:43.586Z,101082.75
2023-03-17T05:25:11.525Z,101097.38
2023-03-17T05:27:39.566Z,101103.69
2023-03-17T05:30:10.439Z,101096.94
2023-03-17T05:32:38.282Z,101108.75
2023-03-17T05:35:06.797Z,101106.53
2023-03-17T05:37:34.786Z,101104.00
2023-03-17T05:40:03.152Z,101106.94
2023-03-17T05:42:31.026Z,101106.22
2023-03-17T05:45:02.141Z,101108.91
2023-03-17T05:47:32.116Z,101104.03
2023-03-17T05:50:00.099Z,101106.78
2023-03-17T05:52:28.475Z,101104.56
2023-03-17T05:54:56.758Z,101107.75
2023-03-17T05:57:24.775Z,101116.25
2023-03-17T05:59:52.624Z,101122.25
2023-03-17T06:02:20.785Z,101127.94
2023-03-17T06:04:50.098Z,101111.09
2023-03-17T06:07:18.094Z,101118.81
2023-03-17T06:09:45.967Z,101117.47
2023-03-17T06:12:13.945Z,101114.09
2023-03-17T06:14:41.888Z,101099.47
2023-03-17T06:17:09.765Z,101094.00
2023-03-17T06:19:37.642Z,101099.56
2023-03-17T06:22:09.817Z,101096.50
2023-03-17T06:24:38.005Z,101104.63
2023-03-17T06:27:06.114Z,101116.63
2023-03-17T06:29:33.972Z,101112.41
2023-03-17T06:32:18.770Z,101111.56
2023-03-17T06:34:46.943Z,101104.84
2023-03-17T06:37:16.470Z,101101.25
2023-03-17T06:39:45.128Z,101103.88
2023-03-17T06:42:13.302Z,101107.88
2023-03-17T06:44:41.557Z,101098.50
2023-03-17T06:47:09.498Z,101088.09
2023-03-17T06:49:37.378Z,101092.13
2023-03-17T06:52:05.578Z,101101.06
2023-03-17T06:54:36.511Z,101087.28
2023-03-17T06:57:04.516Z,101077.81
2023-03-17T06:59:32.378Z,101075.19
2023-03-17T07:02:00.372Z,101079.91
2023-03-17T07:04:28.375Z,101080.66
2023-03-17T07:06:56.263Z,101083.72
2023-03-17T07:09:24.159Z,101080.66
2023-03-17T07:11:53.601Z,101085.09
2023-03-17T07:14:21.452Z,101073.69
2023-03-17T07:16:50.417Z,101080.63
2023-03-17T07:19:18.306Z,101074.41
2023-03-17T07:21:47.137Z,101060.81
2023-03-17T07:24:15.151Z,101051.47
2023-03-17T07:26:43.043Z,101049.56
2023-03-17T07:29:12.244Z,101046.56
2023-03-17T07:31:40.126Z,101053.53
2023-03-17T07:34:08.008Z,101043.34
2023-03-17T07:36:35.901Z,101029.59
2023-03-17T07:39:04.559Z,101032.22
2023-03-17T07:41:32.421Z,101038.06
2023-03-17T07:44:00.242Z,101036.75
2023-03-17T07:46:29.563Z,101012.44
2023-03-17T07:48:57.548Z,101013.34
2023-03-17T07:51:27.660Z,101033.41
2023-03-17T07:54:03.101Z,101023.91
2023-03-17T07:56:31.993Z,101032.22
2023-03-17T07:59:00.232Z,101050.22
2023-03-17T08:01:30.438Z,101036.25
2023-03-17T08:03:58.627Z,101042.88
2023-03-17T08:06:26.648Z,101039.06
2023-03-17T08:08:54.873Z,101026.34
2023-03-17T08:11:23.389Z,101035.00
2023-03-17T08:13:51.792Z,101040.97
2023-03-17T08:16:19.747Z,101030.81
2023-03-17T08:18:49.111Z,101035.25
2023-03-17T08:21:17.622Z,101024.03
2023-03-17T08:23:45.646Z,101020.88
2023-03-17T08:26:15.866Z,101030.94
2023-03-17T08:28:44.758Z,101030.13
2023-03-17T08:31:14.589Z,101016.44
2023-03-17T08:33:42.822Z,101012.31
2023-03-17T08:36:12.757Z,101016.78
2023-03-17T08:38:42.293Z,101015.53
2023-03-17T08:41:13.417Z,101026.59
2023-03-17T08:43:42.650Z,101033.13
2023-03-17T08:46:15.731Z,101032.59
2023-03-17T08:48:45.067Z,101014.66
2023-03-17T08:51:17.012Z,101006.84
2023-03-17T08:53:46.459Z,100995.13
2023-03-17T08:56:15.361Z,100987.81
2023-03-17T08:58:43.935Z,100980.00
2023-03-17T09:01:12.369Z,100974.34
2023-03-17T09:03:40.863Z,100973.53
2023-03-17T09:06:11.631Z,100979.81
2023-03-17T09:08:44.672Z,100986.25
2023-03-17T09:11:14.727Z,100970.75
2023-03-17T09:13:42.860Z,100964.47
2023-03-17T09:16:10.870Z,100961.69
2023-03-17T09:18:39.094Z,100957.66
2023-03-17T09:21:07.449Z,100957.84
2023-03-17T09:23:35.546Z,100952.38
2023-03-17T09:26:04.824Z,100950.84
2023-03-17T09:28:32.821Z,100961.38
2023-03-17T09:31:01.185Z,100960.09
2023-03-17T09:33:29.870Z,100962.34
2023-03-17T09:35:57.891Z,100950.94
2023-03-17T09:38:26.381Z,100962.66
2023-03-17T09:40:58.852Z,100960.56
2023-03-17T09:43:34.418Z,100965.97
2023-03-17T09:46:10.102Z,100963.44
2023-03-17T09:48:47.456Z,100958.56
2023-03-17T09:51:20.634Z,100954.34
2023-03-17T09:53:52.731Z,100960.31
2023-03-17T09:56:21.071Z,100954.06
2023-03-17T09:58:53.933Z,100952.81
2023-03-17T10:01:23.280Z,100950.94
2023-03-17T10:03:51.590Z,100945.22
2023-03-17T10:06:29.117Z,100945.06
2023-03-17T10:08:59.896Z,100936.34
2023-03-17T10:11:36.329Z,100929.41
2023-03-17T10:14:12.187Z,100921.44
2023-03-17T10:16:44.200Z,100930.34
2023-03-17T10:19:21.586Z,100937.94
2023-03-17T10:21:52.508Z,100923.66
2023-03-17T10:24:21.319Z,100928.91
2023-03-17T10:26:51.569Z,100930.84
2023-03-17T10:29:23.756Z,100935.00
2023-03-17T10:31:52.404Z,100937.13
2023-03-17T10:34:23.676Z,100934.56
2023-03-17T10:36:54.577Z,100932.97
2023-03-17T10:39:24.993Z,100923.84
2023-03-17T10:41:58.004Z,100919.09
2023-03-17T10:44:42.022Z,100925.91
2023-03-17T10:47:25.141Z,100929.50
2023-03-17T10:49:53.457Z,100923.66
2023-03-17T10:52:23.843Z,100914.97
2023-03-17T10:54:52.637Z,100909.91
2023-03-17T10:57:22.170Z,100908.19
2023-03-17T10:59:53.673Z,100903.50
2023-03-17T11:02:26.327Z,100898.19
2023-03-17T11:04:56.426Z,100900.84
2023-03-17T11:07:31.211Z,100888.50
2023-03-17T11:10:01.304Z,100891.25
2023-03-17T11:12:32.748Z,100885.56
2023-03-17T11:15:05.874Z,100877.03
2023-03-17T11:17:41.332Z,100892.53
2023-03-17T11:20:21.853Z,100884.44
2023-03-17T11:22:56.423Z,100889.97
2023-03-17T11:25:25.390Z,100878.03
2023-03-17T11:27:55.739Z,100876.28
2023-03-17T11:30:32.298Z,100878.16
2023-03-17T11:33:06.518Z,100880.44
2023-03-17T11:35:39.965Z,100873.16
2023-03-17T11:38:22.316Z,100872.03
2023-03-17T11:41:17.244Z,100868.53
2023-03-17T11:44:05.641Z,100866.81
2023-03-17T11:46:37.938Z,100868.22
2023-03-17T11:49:12.136Z,100866.38
2023-03-17T11:51:51.638Z,100866.53
2023-03-17T11:54:24.591Z,100867.09
2023-03-17T11:56:55.685Z,100863.66
2023-03-17T11:59:31.404Z,100856.63
2023-03-17T12:02:07.588Z,100854.13
2023-03-17T12:04:37.912Z,100849.47
2023-03-17T12:07:11.971Z,100853.22
2023-03-17T12:09:43.217Z,100848.66
2023-03-17T12:12:15.873Z,100868.72
2023-03-17T12:14:48.606Z,100854.41
2023-03-17T12:17:21.526Z,100842.19
2023-03-17T12:20:00.228Z,100834.47
2023-03-17T12:22:32.754Z,100835.94
2023-03-17T12:25:06.943Z,100832.81
2023-03-17T12:27:38.090Z,100826.66
2023-03-17T12:30:12.166Z,100828.69
2023-03-17T12:32:46.723Z,100826.78
2023-03-17T12:35:24.970Z,100831.81
2023-03-17T12:37:53.443Z,100827.03
2023-03-17T12:40:25.870Z,100825.78
2023-03-17T12:42:57.496Z,100820.78
2023-03-17T12:45:41.383Z,100815.16
2023-03-17T12:48:24.744Z,100813.97
2023-03-17T12:51:28.846Z,100809.41
2023-03-17T12:53:56.790Z,100808.91
2023-03-17T12:56:27.734Z,100791.41
2023-03-17T12:59:00.100Z,100785.97
2023-03-17T13:01:33.216Z,100789.88
2023-03-17T13:04:15.744Z,100786.59
2023-03-17T13:06:45.797Z,100788.53
2023-03-17T13:09:48.378Z,100794.88
2023-03-17T13:13:05.678Z,100789.19
2023-03-17T13:15:52.154Z,100790.59
2023-03-17T13:18:42.843Z,100791.13
2023-03-17T13:21:15.075Z,100787.47
2023-03-17T13:23:44.657Z,100774.22
2023-03-17T13:26:13.810Z,100776.78
2023-03-17T13:28:44.572Z,100772.63
2023-03-17T13:31:17.955Z,100768.56
2023-03-17T13:33:47.352Z,100773.91
2023-03-17T13:36:24.036Z,100778.66
2023-03-17T13:39:18.653Z,100766.59
2023-03-17T13:42:08.756Z,100765.97
2023-03-17T13:44:55.952Z,100757.34
2023-03-17T13:47:32.515Z,100759.41
2023-03-17T13:50:03.715Z,100769.03
2023-03-17T13:52:34.870Z,100769.09
2023-03-17T13:55:07.687Z,100774.25
2023-03-17T13:57:39.554Z,100781.81
2023-03-17T14:00:22.129Z,100774.31
2023-03-17T14:02:50.967Z,100778.78
2023-03-17T14:05:23.098Z,100776.16
2023-03-17T14:07:56.695Z,100773.19
2023-03-17T14:10:27.406Z,100777.91
2023-03-17T14:13:00.134Z,100769.78
2023-03-17T14:15:32.078Z,100765.56
2023-03-17T14:18:04.287Z,100765.34
2023-03-17T14:20:32.600Z,100767.50
2023-03-17T14:23:03.515Z,100768.25
2023-03-17T14:25:33.695Z,100761.38
2023-03-17T14:28:02.099Z,100761.69
2023-03-17T14:30:31.973Z,100751.63
2023-03-17T14:33:03.154Z,100743.19
2023-03-17T14:35:32.472Z,100730.56
2023-03-17T14:38:02.662Z,100730.31
2023-03-17T14:40:36.665Z,100730.84
2023-03-17T14:43:04.939Z,100732.59
2023-03-17T14:45:44.942Z,100722.09
2023-03-17T14:48:14.346Z,100718.41
2023-03-17T14:50:51.118Z,100715.09
2023-03-17T14:53:23.899Z,100697.38
2023-03-17T14:55:52.794Z,100705.34
2023-03-17T14:58:24.319Z,100704.75
2023-03-17T15:00:58.210Z,100716.91
2023-03-17T15:03:31.468Z,100710.03
2023-03-17T15:06:08.880Z,100702.69
2023-03-17T15:08:46.025Z,100706.38
2023-03-17T15:11:23.017Z,100707.09
2023-03-17T15:13:52.502Z,100704.59
2023-03-17T15:16:23.993Z,100702.34
2023-03-17T15:19:03.513Z,100695.16
2023-03-17T15:21:35.157Z,100693.84
2023-03-17T15:24:23.044Z,100679.53
2023-03-17T15:26:51.082Z,100675.41
2023-03-17T15:29:19.289Z,100667.38
2023-03-17T15:31:47.190Z,100670.56
2023-03-17T15:34:15.590Z,100661.72
2023-03-17T15:36:47.279Z,100667.25
2023-03-17T15:39:16.515Z,100662.56
2023-03-17T15:41:44.474Z,100663.25
2023-03-17T15:44:12.488Z,100655.09
2023-03-17T15:46:40.508Z,100655.56
2023-03-17T15:49:10.968Z,100657.75
2023-03-17T15:51:39.224Z,100657.25
2023-03-17T15:54:07.119Z,100654.22
2023-03-17T15:56:38.473Z,100668.56
2023-03-17T15:59:06.367Z,100663.63
2023-03-17T16:01:34.274Z,100668.28
2023-03-17T16:04:02.191Z,100667.78
2023-03-17T16:06:30.109Z,100671.00
2023-03-17T16:08:58.120Z,100662.66
2023-03-17T16:11:28.866Z,100665.00
2023-03-17T16:13:59.671Z,100667.19
2023-03-17T16:16:31.872Z,100681.03
2023-03-17T16:19:00.131Z,100679.69
2023-03-17T16:21:28.068Z,100681.03
2023-03-17T16:23:56.283Z,100676.00
2023-03-17T16:26:24.399Z,100673.19
2023-03-17T16:28:52.730Z,100678.84
2023-03-17T16:31:26.236Z,100675.19
2023-03-17T16:33:54.831Z,100667.34
2023-03-17T16:36:24.530Z,100663.34
2023-03-17T16:38:52.799Z,100661.34
2023-03-17T16:41:23.172Z,100654.84
2023-03-17T16:43:53.604Z,100658.03
2023-03-17T16:46:22.482Z,100656.69
2023-03-17T16:48:52.185Z,100659.88
2023-03-17T16:51:20.337Z,100663.53
2023-03-17T16:53:48.329Z,100665.88
2023-03-17T16:56:18.522Z,100666.22
2023-03-17T16:58:47.597Z,100664.22
2023-03-17T17:01:18.345Z,100666.03
2023-03-17T17:03:46.356Z,100662.88
2023-03-17T17:06:16.192Z,100663.72
2023-03-17T17:08:44.943Z,100660.06
2023-03-17T17:11:13.920Z,100662.34
2023-03-17T17:13:42.253Z,100666.03
2023-03-17T17:16:18.957Z,100667.84
2023-03-17T17:18:47.501Z,100661.69
2023-03-17T17:21:16.771Z,100668.03
2023-03-17T17:23:44.660Z,100663.00
2023-03-17T17:26:12.560Z,100663.19
2023-03-17T17:28:40.594Z,100667.50
2023-03-17T17:31:09.150Z,100669.34
2023-03-17T17:33:37.642Z,100661.34
2023-03-17T17:36:08.017Z,100667.81
2023-03-17T17:38:37.274Z,100671.31
2023-03-17T17:41:06.877Z,100671.13
2023-03-17T17:43:34.934Z,100661.97
2023-03-17T17:46:02.828Z,100668.63
2023-03-17T17:48:30.718Z,100677.63
2023-03-17T17:50:59.085Z,100675.75
2023-03-17T17:53:26.900Z,100676.25
2023-03-17T17:55:57.581Z,100676.41
2023-03-17T17:58:26.615Z,100677.25
2023-03-17T18:00:56.878Z,100672.25
2023-03-17T18:03:25.529Z,100676.88
2023-03-17T18:05:53.429Z,100674.56
2023-03-17T18:08:21.362Z,100676.00
2023-03-17T18:10:51.886Z,100676.31
2023-03-17T18:13:21.585Z,100676.00
2023-03-17T18:15:49.444Z,100664.38
2023-03-17T18:18:17.397Z,100665.69
2023-03-17T18:20:45.433Z,100668.66
2023-03-17T18:23:13.364Z,100669.66
2023-03-17T18:25:41.462Z,100672.81
2023-03-17T18:28:09.318Z,100676.31
2023-03-17T18:30:38.916Z,100667.81
2023-03-17T18:33:09.154Z,100667.09
2023-03-17T18:35:37.385Z,100666.13
2023-03-17T18:38:05.328Z,100662.78
2023-03-17T18:40:33.861Z,100658.44
2023-03-17T18:43:01.836Z,100664.25
2023-03-17T18:45:29.918Z,100658.28
2023-03-17T18:47:59.174Z,100655.94
2023-03-17T18:50:27.227Z,100654.03
2023-03-17T18:52:55.859Z,100648.72
2023-03-17T18:55:23.771Z,100646.06
2023-03-17T18:57:51.834Z,100651.19
2023-03-17T19:00:20.201Z,100646.03
2023-03-17T19:02:48.127Z,100653.03
2023-03-17T19:05:17.800Z,100640.81
2023-03-17T19:07:45.840Z,100635.97
2023-03-17T19:10:14.957Z,100632.97
2023-03-17T19:12:43.563Z,100624.31
2023-03-17T19:15:12.406Z,100629.16
2023-03-17T19:17:40.393Z,100634.56
2023-03-17T19:20:10.189Z,100628.94
2023-03-17T19:22:40.253Z,100624.91
2023-03-17T19:25:08.872Z,100620.72
2023-03-17T19:27:36.701Z,100621.59
2023-03-17T19:30:05.267Z,100614.56
2023-03-17T19:32:33.283Z,100608.03
2023-03-17T19:35:01.138Z,100604.53
2023-03-17T19:37:29.668Z,100617.84
2023-03-17T19:39:58.972Z,100626.28
2023-03-17T19:42:26.898Z,100626.81
2023-03-17T19:44:54.814Z,100630.09
2023-03-17T19:47:22.796Z,100630.31
2023-03-17T19:49:50.907Z,100618.94
2023-03-17T19:52:18.886Z,100636.03
2023-03-17T19:54:47.072Z,100631.84
2023-03-17T19:57:18.984Z,100638.00
2023-03-17T19:59:47.126Z,100634.00
2023-03-17T20:02:16.517Z,100641.28
2023-03-17T20:04:44.700Z,100637.16
2023-03-17T20:07:12.915Z,100643.59
2023-03-17T20:09:42.191Z,100646.25
2023-03-17T20:12:10.042Z,100647.91
2023-03-17T20:14:39.352Z,100645.41
2023-03-17T20:17:07.352Z,100644.69
2023-03-17T20:19:39.234Z,100659.28
2023-03-17T20:22:07.371Z,100660.34
2023-03-17T20:24:35.440Z,100656.63
2023-03-17T20:27:03.602Z,100661.09
2023-03-17T20:29:31.689Z,100656.63
2023-03-17T20:32:02.054Z,100652.38
2023-03-17T20:34:31.753Z,100661.56
2023-03-17T20:36:59.653Z,100657.44
2023-03-17T20:39:27.570Z,100649.63
2023-03-17T20:41:55.524Z,100644.47
2023-03-17T20:44:24.246Z,100642.44
2023-03-17T20:46:53.206Z,100639.53
2023-03-17T20:49:23.368Z,100633.25
2023-03-17T20:51:51.629Z,100632.72
2023-03-17T20:54:19.942Z,100640.84
2023-03-17T20:56:52.274Z,100642.66
2023-03-17T20:59:20.344Z,100633.38
2023-03-17T21:01:48.412Z,100642.16
2023-03-17T21:04:17.604Z,100639.13
2023-03-17T21:06:46.833Z,100636.53
2023-03-17T21:09:14.750Z,100637.47
2023-03-17T21:11:42.756Z,100641.69
2023-03-17T21:14:12.199Z,100641.69
2023-03-17T21:16:42.089Z,100650.66
2023-03-17T21:19:12.851Z,100650.34
2023-03-17T21:21:40.995Z,100648.16
2023-03-17T21:24:22.299Z,100642.63
2023-03-17T21:26:50.107Z,100634.00
2023-03-17T21:29:18.213Z,100639.56
2023-03-17T21:31:46.225Z,100632.19
2023-03-17T21:34:14.049Z,100632.78
2023-03-17T21:36:42.042Z,100633.94
2023-03-17T21:39:11.383Z,100636.28
2023-03-17T21:41:40.785Z,100638.13
2023-03-17T21:44:09.700Z,100630.03
2023-03-17T21:46:37.880Z,100629.06
2023-03-17T21:49:05.883Z,100640.00
2023-03-17T21:51:34.166Z,100640.66
2023-03-17T21:54:03.788Z,100630.56
2023-03-17T21:56:33.391Z,100635.59
2023-03-17T21:59:01.414Z,100629.72
2023-03-17T22:01:29.443Z,100625.66
2023-03-17T22:03:57.633Z,100627.31
2023-03-17T22:06:27.366Z,100626.34
2023-03-17T22:08:55.508Z,100625.25
2023-03-17T22:11:23.881Z,100615.53
2023-03-17T22:13:53.193Z,100614.84
2023-03-17T22:16:21.508Z,100615.44
2023-03-17T22:18:49.491Z,100619.88
2023-03-17T22:21:17.375Z,100619.19
2023-03-17T22:23:46.196Z,100614.75
2023-03-17T22:26:15.992Z,100616.03
2023-03-17T22:28:45.209Z,100611.25
2023-03-17T22:31:16.488Z,100624.97
2023-03-17T22:33:44.433Z,100611.47
2023-03-17T22:36:12.759Z,100614.41
2023-03-17T22:38:41.280Z,100612.00
2023-03-17T22:41:11.902Z,100609.66
2023-03-17T22:43:40.085Z,100609.56
2023-03-17T22:46:08.331Z,100617.81
2023-03-17T22:48:37.951Z,100620.47
2023-03-17T22:51:07.363Z,100612.81
2023-03-17T22:53:35.380Z,100610.75
2023-03-17T22:56:04.065Z,100610.59
2023-03-17T22:58:32.270Z,100616.47
2023-03-17T23:01:00.272Z,100607.97
2023-03-17T23:03:28.595Z,100612.22
2023-03-17T23:06:00.382Z,100607.47
2023-03-17T23:08:31.512Z,100602.31
2023-03-17T23:11:01.686Z,100609.59
2023-03-17T23:13:30.361Z,100607.22
2023-03-17T23:15:58.930Z,100604.72
2023-03-17T23:18:26.819Z,100606.97
2023-03-17T23:20:54.670Z,100607.38
2023-03-17T23:23:24.396Z,100606.53
2023-03-17T23:25:52.943Z,100593.44
2023-03-17T23:28:21.190Z,100597.75
2023-03-17T23:30:49.240Z,100594.13
2023-03-17T23:33:21.126Z,100596.25
2023-03-17T23:35:50.432Z,100584.66
2023-03-17T23:38:19.317Z,100582.84
2023-03-17T23:40:49.528Z,100578.81
2023-03-17T23:43:17.375Z,100585.34
2023-03-17T23:45:45.426Z,100585.50
2023-03-17T23:48:13.568Z,100582.97
2023-03-17T23:50:42.265Z,100583.66
2023-03-17T23:53:11.414Z,100587.44
2023-03-17T23:55:40.005Z,100587.03
2023-03-17T23:58:09.180Z,100594.13
